sensor_id;sensor_type;location;lat;lon;timestamp;P1;durP1;ratioP1;P2;durP2;ratioP2
146;SDS011;45999;48.808;9.182;2023-02-21T00:01:01;5.07;;;3.20;;
146;SDS011;45999;48.808;9.182;2023-02-21T00:03:45;6.73;;;2.87;;
146;SDS011;45999;48.808;9.182;2023-02-21T00:06:29;6.37;;;2.80;;
146;SDS011;45999;48.808;9.182;2023-02-21T00:09:13;5.43;;;3.20;;
146;SDS011;45999;48.808;9.182;2023-02-21T00:11:57;5.23;;;3.20;;
146;SDS011;45999;48.808;9.182;2023-02-21T00:14:40;4.57;;;3.13;;
146;SDS011;45999;48.808;9.182;2023-02-21T00:17:24;5.40;;;2.93;;
146;SDS011;45999;48.808;9.182;2023-02-21T00:20:09;5.23;;;3.23;;
146;SDS011;45999;48.808;9.182;2023-02-21T00:22:52;4.17;;;2.93;;
146;SDS011;45999;48.808;9.182;2023-02-21T00:25:36;5.50;;;3.70;;
146;SDS011;45999;48.808;9.182;2023-02-21T00:28:20;6.50;;;3.60;;
146;SDS011;45999;48.808;9.182;2023-02-21T00:31:04;5.30;;;3.73;;
146;SDS011;45999;48.808;9.182;2023-02-21T00:33:48;5.67;;;3.60;;
146;SDS011;45999;48.808;9.182;2023-02-21T00:36:32;4.40;;;3.23;;
146;SDS011;45999;48.808;9.182;2023-02-21T00:39:16;5.53;;;3.77;;
146;SDS011;45999;48.808;9.182;2023-02-21T00:42:00;7.77;;;3.63;;
146;SDS011;45999;48.808;9.182;2023-02-21T00:44:44;5.70;;;3.47;;
146;SDS011;45999;48.808;9.182;2023-02-21T00:47:28;6.27;;;3.30;;
146;SDS011;45999;48.808;9.182;2023-02-21T00:50:12;4.90;;;2.80;;
146;SDS011;45999;48.808;9.182;2023-02-21T00:52:56;3.30;;;2.90;;
146;SDS011;45999;48.808;9.182;2023-02-21T00:55:40;6.10;;;3.10;;
146;SDS011;45999;48.808;9.182;2023-02-21T00:58:24;8.20;;;3.50;;
146;SDS011;45999;48.808;9.182;2023-02-21T01:01:08;3.70;;;3.10;;
146;SDS011;45999;48.808;9.182;2023-02-21T01:03:52;5.93;;;3.30;;
146;SDS011;45999;48.808;9.182;2023-02-21T01:06:36;4.20;;;2.70;;
146;SDS011;45999;48.808;9.182;2023-02-21T01:09:20;5.43;;;3.03;;
146;SDS011;45999;48.808;9.182;2023-02-21T01:12:04;5.53;;;3.40;;
146;SDS011;45999;48.808;9.182;2023-02-21T01:14:47;3.87;;;3.07;;
146;SDS011;45999;48.808;9.182;2023-02-21T01:17:31;7.23;;;3.40;;
146;SDS011;45999;48.808;9.182;2023-02-21T01:20:15;5.73;;;3.13;;
146;SDS011;45999;48.808;9.182;2023-02-21T01:22:59;6.10;;;3.17;;
146;SDS011;45999;48.808;9.182;2023-02-21T01:25:43;5.80;;;3.30;;
146;SDS011;45999;48.808;9.182;2023-02-21T01:28:28;7.40;;;3.10;;
146;SDS011;45999;48.808;9.182;2023-02-21T01:31:15;6.13;;;2.80;;
146;SDS011;45999;48.808;9.182;2023-02-21T01:33:59;6.23;;;2.80;;
146;SDS011;45999;48.808;9.182;2023-02-21T01:36:43;4.73;;;3.20;;
146;SDS011;45999;48.808;9.182;2023-02-21T01:39:27;5.50;;;3.00;;
146;SDS011;45999;48.808;9.182;2023-02-21T01:42:11;6.50;;;3.30;;
146;SDS011;45999;48.808;9.182;2023-02-21T01:47:57;4.93;;;2.90;;
146;SDS011;45999;48.808;9.182;2023-02-21T01:50:41;5.63;;;3.00;;
146;SDS011;45999;48.808;9.182;2023-02-21T01:53:25;8.87;;;3.10;;
146;SDS011;45999;48.808;9.182;2023-02-21T01:56:10;5.10;;;3.10;;
146;SDS011;45999;48.808;9.182;2023-02-21T01:58:55;5.13;;;2.67;;
146;SDS011;45999;48.808;9.182;2023-02-21T02:01:46;4.70;;;2.37;;
146;SDS011;45999;48.808;9.182;2023-02-21T02:04:32;4.23;;;2.67;;
146;SDS011;45999;48.808;9.182;2023-02-21T02:07:17;4.10;;;2.90;;
146;SDS011;45999;48.808;9.182;2023-02-21T02:10:01;4.27;;;2.90;;
146;SDS011;45999;48.808;9.182;2023-02-21T02:13:34;4.87;;;2.30;;
146;SDS011;45999;48.808;9.182;2023-02-21T02:15:32;4.13;;;2.83;;
146;SDS011;45999;48.808;9.182;2023-02-21T02:31:04;4.20;;;3.07;;
146;SDS011;45999;48.808;9.182;2023-02-21T02:36:38;6.70;;;3.57;;
146;SDS011;45999;48.808;9.182;2023-02-21T02:38:57;4.53;;;3.30;;
146;SDS011;45999;48.808;9.182;2023-02-21T02:44:05;5.87;;;3.00;;
146;SDS011;45999;48.808;9.182;2023-02-21T02:46:36;6.50;;;3.80;;
146;SDS011;45999;48.808;9.182;2023-02-21T02:49:19;7.00;;;3.40;;
146;SDS011;45999;48.808;9.182;2023-02-21T02:51:47;8.47;;;3.43;;
146;SDS011;45999;48.808;9.182;2023-02-21T02:54:14;5.43;;;4.10;;
146;SDS011;45999;48.808;9.182;2023-02-21T02:56:40;6.13;;;3.40;;
146;SDS011;45999;48.808;9.182;2023-02-21T02:59:08;6.43;;;3.67;;
146;SDS011;45999;48.808;9.182;2023-02-21T03:01:39;4.47;;;3.30;;
146;SDS011;45999;48.808;9.182;2023-02-21T03:12:17;5.03;;;3.37;;
146;SDS011;45999;48.808;9.182;2023-02-21T03:14:36;4.83;;;3.73;;
146;SDS011;45999;48.808;9.182;2023-02-21T03:17:05;4.33;;;3.30;;
146;SDS011;45999;48.808;9.182;2023-02-21T03:19:34;6.17;;;3.47;;
146;SDS011;45999;48.808;9.182;2023-02-21T03:22:02;6.70;;;3.90;;
146;SDS011;45999;48.808;9.182;2023-02-21T03:24:30;5.90;;;3.70;;
146;SDS011;45999;48.808;9.182;2023-02-21T03:26:59;7.83;;;4.10;;
146;SDS011;45999;48.808;9.182;2023-02-21T03:29:27;4.87;;;3.87;;
146;SDS011;45999;48.808;9.182;2023-02-21T03:32:12;5.57;;;3.50;;
146;SDS011;45999;48.808;9.182;2023-02-21T03:34:39;5.23;;;3.80;;
146;SDS011;45999;48.808;9.182;2023-02-21T03:37:06;7.43;;;3.80;;
146;SDS011;45999;48.808;9.182;2023-02-21T03:39:33;6.13;;;3.87;;
146;SDS011;45999;48.808;9.182;2023-02-21T03:41:59;6.07;;;3.77;;
146;SDS011;45999;48.808;9.182;2023-02-21T03:44:25;6.20;;;4.00;;
146;SDS011;45999;48.808;9.182;2023-02-21T03:46:52;6.77;;;4.03;;
146;SDS011;45999;48.808;9.182;2023-02-21T03:49:18;6.53;;;4.07;;
146;SDS011;45999;48.808;9.182;2023-02-21T03:51:44;6.10;;;3.67;;
146;SDS011;45999;48.808;9.182;2023-02-21T03:54:10;6.43;;;4.07;;
146;SDS011;45999;48.808;9.182;2023-02-21T03:56:37;5.77;;;4.03;;
146;SDS011;45999;48.808;9.182;2023-02-21T03:59:03;6.77;;;4.10;;
146;SDS011;45999;48.808;9.182;2023-02-21T04:01:29;6.40;;;4.07;;
146;SDS011;45999;48.808;9.182;2023-02-21T04:03:55;7.63;;;4.70;;
146;SDS011;45999;48.808;9.182;2023-02-21T04:06:22;6.23;;;4.50;;
146;SDS011;45999;48.808;9.182;2023-02-21T04:08:48;6.53;;;4.60;;
146;SDS011;45999;48.808;9.182;2023-02-21T04:11:19;5.17;;;4.27;;
146;SDS011;45999;48.808;9.182;2023-02-21T04:13:46;8.27;;;4.63;;
146;SDS011;45999;48.808;9.182;2023-02-21T04:16:12;6.33;;;4.60;;
146;SDS011;45999;48.808;9.182;2023-02-21T04:18:38;7.70;;;4.80;;
146;SDS011;45999;48.808;9.182;2023-02-21T04:21:04;5.87;;;4.20;;
146;SDS011;45999;48.808;9.182;2023-02-21T04:23:31;8.17;;;5.07;;
146;SDS011;45999;48.808;9.182;2023-02-21T04:25:57;8.97;;;5.43;;
146;SDS011;45999;48.808;9.182;2023-02-21T04:28:23;8.10;;;5.20;;
146;SDS011;45999;48.808;9.182;2023-02-21T04:30:49;7.33;;;4.87;;
146;SDS011;45999;48.808;9.182;2023-02-21T04:33:16;8.77;;;5.17;;
146;SDS011;45999;48.808;9.182;2023-02-21T04:35:42;7.07;;;4.90;;
146;SDS011;45999;48.808;9.182;2023-02-21T04:38:08;8.53;;;4.63;;
146;SDS011;45999;48.808;9.182;2023-02-21T04:40:34;7.73;;;5.10;;
146;SDS011;45999;48.808;9.182;2023-02-21T04:43:01;7.43;;;4.97;;
146;SDS011;45999;48.808;9.182;2023-02-21T04:45:27;7.27;;;4.93;;
146;SDS011;45999;48.808;9.182;2023-02-21T04:47:53;6.73;;;4.87;;
146;SDS011;45999;48.808;9.182;2023-02-21T04:50:20;7.30;;;4.77;;
146;SDS011;45999;48.808;9.182;2023-02-21T04:52:46;7.00;;;4.53;;
146;SDS011;45999;48.808;9.182;2023-02-21T04:55:13;9.33;;;5.03;;
146;SDS011;45999;48.808;9.182;2023-02-21T04:57:39;6.43;;;4.70;;
146;SDS011;45999;48.808;9.182;2023-02-21T05:00:06;7.50;;;4.80;;
146;SDS011;45999;48.808;9.182;2023-02-21T05:02:32;7.83;;;4.93;;
146;SDS011;45999;48.808;9.182;2023-02-21T05:04:58;8.53;;;5.23;;
146;SDS011;45999;48.808;9.182;2023-02-21T05:07:25;8.10;;;4.63;;
146;SDS011;45999;48.808;9.182;2023-02-21T05:09:51;7.43;;;5.07;;
146;SDS011;45999;48.808;9.182;2023-02-21T05:12:17;7.60;;;4.73;;
146;SDS011;45999;48.808;9.182;2023-02-21T05:14:43;8.67;;;4.60;;
146;SDS011;45999;48.808;9.182;2023-02-21T05:17:10;8.07;;;4.53;;
146;SDS011;45999;48.808;9.182;2023-02-21T05:19:36;9.03;;;4.80;;
146;SDS011;45999;48.808;9.182;2023-02-21T05:22:02;6.67;;;4.57;;
146;SDS011;45999;48.808;9.182;2023-02-21T05:24:30;9.70;;;5.67;;
146;SDS011;45999;48.808;9.182;2023-02-21T05:26:56;9.07;;;5.40;;
146;SDS011;45999;48.808;9.182;2023-02-21T05:29:23;7.30;;;5.53;;
146;SDS011;45999;48.808;9.182;2023-02-21T05:31:49;9.03;;;4.63;;
146;SDS011;45999;48.808;9.182;2023-02-21T05:34:15;11.27;;;5.30;;
146;SDS011;45999;48.808;9.182;2023-02-21T05:36:43;9.50;;;5.17;;
146;SDS011;45999;48.808;9.182;2023-02-21T05:39:10;7.17;;;4.40;;
146;SDS011;45999;48.808;9.182;2023-02-21T05:41:36;8.50;;;5.07;;
146;SDS011;45999;48.808;9.182;2023-02-21T05:44:04;8.80;;;4.90;;
146;SDS011;45999;48.808;9.182;2023-02-21T05:46:31;9.03;;;5.53;;
146;SDS011;45999;48.808;9.182;2023-02-21T05:48:58;8.20;;;5.20;;
146;SDS011;45999;48.808;9.182;2023-02-21T05:51:25;6.67;;;4.80;;
146;SDS011;45999;48.808;9.182;2023-02-21T05:53:51;8.30;;;5.07;;
146;SDS011;45999;48.808;9.182;2023-02-21T05:56:18;7.93;;;4.80;;
146;SDS011;45999;48.808;9.182;2023-02-21T05:58:45;6.77;;;4.80;;
146;SDS011;45999;48.808;9.182;2023-02-21T06:01:11;11.47;;;5.20;;
146;SDS011;45999;48.808;9.182;2023-02-21T06:03:37;7.87;;;5.13;;
146;SDS011;45999;48.808;9.182;2023-02-21T06:06:04;8.60;;;5.20;;
146;SDS011;45999;48.808;9.182;2023-02-21T06:08:30;7.57;;;5.20;;
146;SDS011;45999;48.808;9.182;2023-02-21T06:10:56;8.27;;;5.50;;
146;SDS011;45999;48.808;9.182;2023-02-21T06:13:38;9.33;;;5.40;;
146;SDS011;45999;48.808;9.182;2023-02-21T06:16:04;7.63;;;5.17;;
146;SDS011;45999;48.808;9.182;2023-02-21T06:18:31;8.17;;;5.40;;
146;SDS011;45999;48.808;9.182;2023-02-21T06:20:57;9.77;;;5.40;;
146;SDS011;45999;48.808;9.182;2023-02-21T06:23:23;8.83;;;5.50;;
146;SDS011;45999;48.808;9.182;2023-02-21T06:25:50;7.60;;;5.43;;
146;SDS011;45999;48.808;9.182;2023-02-21T06:28:17;8.27;;;5.23;;
146;SDS011;45999;48.808;9.182;2023-02-21T06:30:43;10.37;;;5.17;;
146;SDS011;45999;48.808;9.182;2023-02-21T06:33:09;12.33;;;5.20;;
146;SDS011;45999;48.808;9.182;2023-02-21T06:35:35;8.13;;;4.40;;
146;SDS011;45999;48.808;9.182;2023-02-21T06:38:02;9.53;;;4.67;;
146;SDS011;45999;48.808;9.182;2023-02-21T06:40:28;7.33;;;4.20;;
146;SDS011;45999;48.808;9.182;2023-02-21T06:42:54;9.37;;;4.00;;
146;SDS011;45999;48.808;9.182;2023-02-21T06:45:20;7.57;;;3.80;;
146;SDS011;45999;48.808;9.182;2023-02-21T06:47:47;8.83;;;4.20;;
146;SDS011;45999;48.808;9.182;2023-02-21T06:50:13;7.67;;;4.20;;
146;SDS011;45999;48.808;9.182;2023-02-21T06:52:39;6.10;;;4.50;;
146;SDS011;45999;48.808;9.182;2023-02-21T06:55:06;8.43;;;4.90;;
146;SDS011;45999;48.808;9.182;2023-02-21T06:57:32;6.97;;;4.30;;
146;SDS011;45999;48.808;9.182;2023-02-21T06:59:58;6.70;;;5.07;;
146;SDS011;45999;48.808;9.182;2023-02-21T07:02:25;11.27;;;5.03;;
146;SDS011;45999;48.808;9.182;2023-02-21T07:04:51;10.00;;;5.43;;
146;SDS011;45999;48.808;9.182;2023-02-21T07:07:17;8.27;;;5.03;;
146;SDS011;45999;48.808;9.182;2023-02-21T07:09:44;6.60;;;4.83;;
146;SDS011;45999;48.808;9.182;2023-02-21T07:12:10;10.23;;;4.80;;
146;SDS011;45999;48.808;9.182;2023-02-21T07:14:36;9.50;;;5.00;;
146;SDS011;45999;48.808;9.182;2023-02-21T07:17:02;9.77;;;4.87;;
146;SDS011;45999;48.808;9.182;2023-02-21T07:19:29;9.93;;;4.77;;
146;SDS011;45999;48.808;9.182;2023-02-21T07:21:55;10.10;;;4.70;;
146;SDS011;45999;48.808;9.182;2023-02-21T07:24:21;8.47;;;4.73;;
146;SDS011;45999;48.808;9.182;2023-02-21T07:26:47;9.13;;;4.97;;
146;SDS011;45999;48.808;9.182;2023-02-21T07:29:14;10.03;;;4.33;;
146;SDS011;45999;48.808;9.182;2023-02-21T07:31:41;9.27;;;4.60;;
146;SDS011;45999;48.808;9.182;2023-02-21T07:34:07;8.40;;;4.30;;
146;SDS011;45999;48.808;9.182;2023-02-21T07:36:35;8.80;;;4.43;;
146;SDS011;45999;48.808;9.182;2023-02-21T07:39:01;9.33;;;4.63;;
146;SDS011;45999;48.808;9.182;2023-02-21T07:41:28;8.37;;;4.20;;
146;SDS011;45999;48.808;9.182;2023-02-21T07:43:54;7.67;;;3.90;;
146;SDS011;45999;48.808;9.182;2023-02-21T07:46:24;6.17;;;4.53;;
146;SDS011;45999;48.808;9.182;2023-02-21T07:48:50;11.50;;;4.03;;
146;SDS011;45999;48.808;9.182;2023-02-21T07:51:17;7.60;;;3.90;;
146;SDS011;45999;48.808;9.182;2023-02-21T07:53:43;9.57;;;4.17;;
146;SDS011;45999;48.808;9.182;2023-02-21T07:56:09;11.47;;;4.63;;
146;SDS011;45999;48.808;9.182;2023-02-21T07:58:35;8.27;;;4.50;;
146;SDS011;45999;48.808;9.182;2023-02-21T08:01:05;10.77;;;4.30;;
146;SDS011;45999;48.808;9.182;2023-02-21T08:03:32;8.43;;;4.40;;
146;SDS011;45999;48.808;9.182;2023-02-21T08:05:58;11.20;;;3.93;;
146;SDS011;45999;48.808;9.182;2023-02-21T08:08:25;8.80;;;4.10;;
146;SDS011;45999;48.808;9.182;2023-02-21T08:10:51;7.63;;;3.90;;
146;SDS011;45999;48.808;9.182;2023-02-21T08:13:17;9.50;;;3.77;;
146;SDS011;45999;48.808;9.182;2023-02-21T08:15:44;9.03;;;4.10;;
146;SDS011;45999;48.808;9.182;2023-02-21T08:18:13;8.17;;;3.60;;
146;SDS011;45999;48.808;9.182;2023-02-21T08:20:42;8.13;;;3.70;;
146;SDS011;45999;48.808;9.182;2023-02-21T08:23:08;9.00;;;4.33;;
146;SDS011;45999;48.808;9.182;2023-02-21T08:25:35;7.50;;;3.80;;
146;SDS011;45999;48.808;9.182;2023-02-21T08:28:01;5.57;;;3.23;;
146;SDS011;45999;48.808;9.182;2023-02-21T08:30:27;8.23;;;3.90;;
146;SDS011;45999;48.808;9.182;2023-02-21T08:32:53;6.93;;;3.83;;
146;SDS011;45999;48.808;9.182;2023-02-21T08:35:20;8.30;;;3.40;;
146;SDS011;45999;48.808;9.182;2023-02-21T08:37:47;7.13;;;3.80;;
146;SDS011;45999;48.808;9.182;2023-02-21T08:40:14;6.37;;;3.83;;
146;SDS011;45999;48.808;9.182;2023-02-21T08:42:40;14.40;;;4.07;;
146;SDS011;45999;48.808;9.182;2023-02-21T08:45:07;4.53;;;3.50;;
146;SDS011;45999;48.808;9.182;2023-02-21T08:47:37;6.07;;;3.60;;
146;SDS011;45999;48.808;9.182;2023-02-21T08:50:03;8.30;;;3.50;;
146;SDS011;45999;48.808;9.182;2023-02-21T08:52:29;5.33;;;3.50;;
146;SDS011;45999;48.808;9.182;2023-02-21T08:54:56;15.10;;;4.07;;
146;SDS011;45999;48.808;9.182;2023-02-21T08:57:22;6.23;;;3.63;;
146;SDS011;45999;48.808;9.182;2023-02-21T08:59:48;6.90;;;3.90;;
146;SDS011;45999;48.808;9.182;2023-02-21T09:02:15;7.57;;;3.90;;
146;SDS011;45999;48.808;9.182;2023-02-21T09:04:42;6.43;;;3.53;;
146;SDS011;45999;48.808;9.182;2023-02-21T09:07:11;9.03;;;4.20;;
146;SDS011;45999;48.808;9.182;2023-02-21T09:09:37;8.33;;;4.10;;
146;SDS011;45999;48.808;9.182;2023-02-21T09:12:04;8.73;;;4.53;;
146;SDS011;45999;48.808;9.182;2023-02-21T09:14:32;9.70;;;4.13;;
146;SDS011;45999;48.808;9.182;2023-02-21T09:16:58;9.40;;;4.43;;
146;SDS011;45999;48.808;9.182;2023-02-21T09:19:24;9.23;;;4.80;;
146;SDS011;45999;48.808;9.182;2023-02-21T09:21:51;10.20;;;4.20;;
146;SDS011;45999;48.808;9.182;2023-02-21T09:24:19;9.07;;;4.27;;
146;SDS011;45999;48.808;9.182;2023-02-21T09:26:49;5.87;;;3.70;;
146;SDS011;45999;48.808;9.182;2023-02-21T09:29:18;4.97;;;3.43;;
146;SDS011;45999;48.808;9.182;2023-02-21T09:31:44;6.80;;;3.77;;
146;SDS011;45999;48.808;9.182;2023-02-21T09:34:10;9.23;;;4.13;;
146;SDS011;45999;48.808;9.182;2023-02-21T09:36:36;7.33;;;4.00;;
146;SDS011;45999;48.808;9.182;2023-02-21T09:39:03;9.03;;;4.03;;
146;SDS011;45999;48.808;9.182;2023-02-21T09:41:30;7.00;;;4.17;;
146;SDS011;45999;48.808;9.182;2023-02-21T09:43:57;7.67;;;4.07;;
146;SDS011;45999;48.808;9.182;2023-02-21T09:48:57;5.77;;;3.90;;
146;SDS011;45999;48.808;9.182;2023-02-21T09:51:23;8.73;;;4.23;;
146;SDS011;45999;48.808;9.182;2023-02-21T09:53:50;5.47;;;3.77;;
146;SDS011;45999;48.808;9.182;2023-02-21T09:56:28;8.43;;;3.57;;
146;SDS011;45999;48.808;9.182;2023-02-21T09:58:55;11.97;;;4.30;;
146;SDS011;45999;48.808;9.182;2023-02-21T10:04:01;9.40;;;4.23;;
146;SDS011;45999;48.808;9.182;2023-02-21T10:09:02;7.83;;;3.43;;
146;SDS011;45999;48.808;9.182;2023-02-21T10:14:08;13.17;;;4.50;;
146;SDS011;45999;48.808;9.182;2023-02-21T10:19:17;6.50;;;3.17;;
146;SDS011;45999;48.808;9.182;2023-02-21T10:21:46;10.70;;;4.00;;
146;SDS011;45999;48.808;9.182;2023-02-21T10:24:20;5.10;;;3.27;;
146;SDS011;45999;48.808;9.182;2023-02-21T10:26:49;6.87;;;3.80;;
146;SDS011;45999;48.808;9.182;2023-02-21T10:29:21;9.67;;;4.33;;
146;SDS011;45999;48.808;9.182;2023-02-21T10:31:49;6.40;;;3.60;;
146;SDS011;45999;48.808;9.182;2023-02-21T10:34:24;10.20;;;4.03;;
146;SDS011;45999;48.808;9.182;2023-02-21T10:36:52;7.20;;;3.43;;
146;SDS011;45999;48.808;9.182;2023-02-21T10:39:20;8.53;;;3.20;;
146;SDS011;45999;48.808;9.182;2023-02-21T10:41:47;9.00;;;3.60;;
146;SDS011;45999;48.808;9.182;2023-02-21T10:44:18;8.20;;;3.70;;
146;SDS011;45999;48.808;9.182;2023-02-21T10:47:07;5.10;;;3.43;;
146;SDS011;45999;48.808;9.182;2023-02-21T10:49:46;6.43;;;3.63;;
146;SDS011;45999;48.808;9.182;2023-02-21T10:52:16;6.23;;;3.10;;
146;SDS011;45999;48.808;9.182;2023-02-21T10:57:32;4.97;;;3.27;;
146;SDS011;45999;48.808;9.182;2023-02-21T10:59:59;7.50;;;2.80;;
146;SDS011;45999;48.808;9.182;2023-02-21T11:02:35;7.63;;;2.87;;
146;SDS011;45999;48.808;9.182;2023-02-21T11:05:07;5.20;;;2.70;;
146;SDS011;45999;48.808;9.182;2023-02-21T11:07:34;5.57;;;2.87;;
146;SDS011;45999;48.808;9.182;2023-02-21T11:10:00;4.97;;;2.97;;
146;SDS011;45999;48.808;9.182;2023-02-21T11:12:27;7.53;;;3.27;;
146;SDS011;45999;48.808;9.182;2023-02-21T11:17:22;4.13;;;3.10;;
146;SDS011;45999;48.808;9.182;2023-02-21T11:19:52;4.80;;;3.17;;
146;SDS011;45999;48.808;9.182;2023-02-21T11:22:20;7.77;;;3.43;;
146;SDS011;45999;48.808;9.182;2023-02-21T11:24:51;7.80;;;3.63;;
146;SDS011;45999;48.808;9.182;2023-02-21T11:27:18;5.10;;;2.60;;
146;SDS011;45999;48.808;9.182;2023-02-21T11:29:46;4.70;;;2.90;;
146;SDS011;45999;48.808;9.182;2023-02-21T11:32:24;7.67;;;2.73;;
146;SDS011;45999;48.808;9.182;2023-02-21T11:34:50;5.33;;;2.90;;
146;SDS011;45999;48.808;9.182;2023-02-21T11:37:25;9.17;;;3.13;;
146;SDS011;45999;48.808;9.182;2023-02-21T11:39:52;6.57;;;2.70;;
146;SDS011;45999;48.808;9.182;2023-02-21T11:42:23;3.07;;;2.47;;
146;SDS011;45999;48.808;9.182;2023-02-21T11:45:02;6.07;;;2.73;;
146;SDS011;45999;48.808;9.182;2023-02-21T11:47:36;5.03;;;2.57;;
146;SDS011;45999;48.808;9.182;2023-02-21T11:50:08;4.73;;;2.30;;
146;SDS011;45999;48.808;9.182;2023-02-21T11:55:22;3.77;;;2.50;;
146;SDS011;45999;48.808;9.182;2023-02-21T11:58:05;2.87;;;2.10;;
146;SDS011;45999;48.808;9.182;2023-02-21T12:03:07;4.53;;;2.17;;
146;SDS011;45999;48.808;9.182;2023-02-21T12:26:47;4.97;;;2.13;;
146;SDS011;45999;48.808;9.182;2023-02-21T12:29:19;4.37;;;2.07;;
146;SDS011;45999;48.808;9.182;2023-02-21T12:34:32;4.43;;;2.23;;
146;SDS011;45999;48.808;9.182;2023-02-21T12:37:08;3.30;;;2.27;;
146;SDS011;45999;48.808;9.182;2023-02-21T12:42:28;2.40;;;2.17;;
146;SDS011;45999;48.808;9.182;2023-02-21T12:48:17;2.63;;;1.90;;
146;SDS011;45999;48.808;9.182;2023-02-21T12:50:24;2.13;;;1.93;;
146;SDS011;45999;48.808;9.182;2023-02-21T12:52:59;2.83;;;1.80;;
146;SDS011;45999;48.808;9.182;2023-02-21T12:55:35;3.40;;;1.90;;
146;SDS011;45999;48.808;9.182;2023-02-21T13:00:52;2.63;;;1.90;;
146;SDS011;45999;48.808;9.182;2023-02-21T13:05:55;5.17;;;1.87;;
146;SDS011;45999;48.808;9.182;2023-02-21T13:11:15;3.47;;;1.77;;
146;SDS011;45999;48.808;9.182;2023-02-21T13:13:43;1.90;;;1.70;;
146;SDS011;45999;48.808;9.182;2023-02-21T13:16:10;4.33;;;2.00;;
146;SDS011;45999;48.808;9.182;2023-02-21T13:29:02;3.73;;;1.60;;
146;SDS011;45999;48.808;9.182;2023-02-21T13:31:35;1.80;;;1.27;;
146;SDS011;45999;48.808;9.182;2023-02-21T13:34:05;2.60;;;1.40;;
146;SDS011;45999;48.808;9.182;2023-02-21T13:36:32;3.47;;;1.40;;
146;SDS011;45999;48.808;9.182;2023-02-21T13:41:35;4.43;;;1.47;;
146;SDS011;45999;48.808;9.182;2023-02-21T13:44:10;1.67;;;1.43;;
146;SDS011;45999;48.808;9.182;2023-02-21T13:51:48;1.97;;;1.43;;
146;SDS011;45999;48.808;9.182;2023-02-21T13:54:20;1.90;;;1.40;;
146;SDS011;45999;48.808;9.182;2023-02-21T13:56:47;2.83;;;1.53;;
146;SDS011;45999;48.808;9.182;2023-02-21T13:59:30;1.90;;;1.47;;
146;SDS011;45999;48.808;9.182;2023-02-21T14:05:03;5.17;;;1.70;;
146;SDS011;45999;48.808;9.182;2023-02-21T14:07:40;3.83;;;1.60;;
146;SDS011;45999;48.808;9.182;2023-02-21T14:10:19;1.77;;;1.30;;
146;SDS011;45999;48.808;9.182;2023-02-21T14:12:53;4.00;;;1.50;;
146;SDS011;45999;48.808;9.182;2023-02-21T14:15:20;3.20;;;1.43;;
146;SDS011;45999;48.808;9.182;2023-02-21T14:17:46;2.53;;;1.43;;
146;SDS011;45999;48.808;9.182;2023-02-21T14:20:16;2.23;;;1.40;;
146;SDS011;45999;48.808;9.182;2023-02-21T14:22:44;3.70;;;1.40;;
146;SDS011;45999;48.808;9.182;2023-02-21T14:25:18;2.87;;;1.30;;
146;SDS011;45999;48.808;9.182;2023-02-21T14:27:47;2.63;;;1.50;;
146;SDS011;45999;48.808;9.182;2023-02-21T14:30:14;2.43;;;1.60;;
146;SDS011;45999;48.808;9.182;2023-02-21T14:32:42;3.57;;;1.40;;
146;SDS011;45999;48.808;9.182;2023-02-21T14:40:35;3.47;;;1.37;;
146;SDS011;45999;48.808;9.182;2023-02-21T14:46:19;2.43;;;1.30;;
146;SDS011;45999;48.808;9.182;2023-02-21T14:48:51;3.63;;;1.50;;
146;SDS011;45999;48.808;9.182;2023-02-21T14:57:04;3.67;;;1.40;;
146;SDS011;45999;48.808;9.182;2023-02-21T15:08:03;2.10;;;1.37;;
146;SDS011;45999;48.808;9.182;2023-02-21T15:10:31;1.87;;;1.40;;
146;SDS011;45999;48.808;9.182;2023-02-21T15:12:59;1.63;;;1.20;;
146;SDS011;45999;48.808;9.182;2023-02-21T15:15:30;2.60;;;1.30;;
146;SDS011;45999;48.808;9.182;2023-02-21T15:18:04;3.60;;;1.37;;
146;SDS011;45999;48.808;9.182;2023-02-21T15:20:32;4.13;;;1.33;;
146;SDS011;45999;48.808;9.182;2023-02-21T15:23:06;1.33;;;1.23;;
146;SDS011;45999;48.808;9.182;2023-02-21T15:25:35;2.70;;;1.20;;
146;SDS011;45999;48.808;9.182;2023-02-21T15:28:03;2.90;;;1.20;;
146;SDS011;45999;48.808;9.182;2023-02-21T15:30:31;2.00;;;1.30;;
146;SDS011;45999;48.808;9.182;2023-02-21T15:35:37;2.97;;;1.20;;
146;SDS011;45999;48.808;9.182;2023-02-21T15:38:06;2.47;;;1.20;;
146;SDS011;45999;48.808;9.182;2023-02-21T15:40:34;3.17;;;1.60;;
146;SDS011;45999;48.808;9.182;2023-02-21T15:43:01;3.60;;;1.40;;
146;SDS011;45999;48.808;9.182;2023-02-21T15:45:30;1.77;;;1.43;;
146;SDS011;45999;48.808;9.182;2023-02-21T15:47:57;2.53;;;1.60;;
146;SDS011;45999;48.808;9.182;2023-02-21T15:52:53;3.53;;;1.67;;
146;SDS011;45999;48.808;9.182;2023-02-21T16:00:26;4.80;;;1.70;;
146;SDS011;45999;48.808;9.182;2023-02-21T16:03:24;2.77;;;1.90;;
146;SDS011;45999;48.808;9.182;2023-02-21T16:05:39;3.87;;;1.97;;
146;SDS011;45999;48.808;9.182;2023-02-21T16:08:05;2.53;;;1.80;;
146;SDS011;45999;48.808;9.182;2023-02-21T16:10:31;2.83;;;1.57;;
146;SDS011;45999;48.808;9.182;2023-02-21T16:12:59;2.83;;;1.70;;
146;SDS011;45999;48.808;9.182;2023-02-21T16:15:27;3.70;;;1.60;;
146;SDS011;45999;48.808;9.182;2023-02-21T16:18:04;2.60;;;1.53;;
146;SDS011;45999;48.808;9.182;2023-02-21T16:20:33;4.10;;;1.70;;
146;SDS011;45999;48.808;9.182;2023-02-21T16:25:54;3.60;;;1.60;;
146;SDS011;45999;48.808;9.182;2023-02-21T16:28:20;3.03;;;1.60;;
146;SDS011;45999;48.808;9.182;2023-02-21T16:30:47;2.57;;;1.67;;
146;SDS011;45999;48.808;9.182;2023-02-21T16:33:13;4.13;;;1.60;;
146;SDS011;45999;48.808;9.182;2023-02-21T16:35:40;5.60;;;1.73;;
146;SDS011;45999;48.808;9.182;2023-02-21T16:38:09;5.13;;;1.87;;
146;SDS011;45999;48.808;9.182;2023-02-21T16:40:35;3.30;;;1.70;;
146;SDS011;45999;48.808;9.182;2023-02-21T16:43:02;4.77;;;1.73;;
146;SDS011;45999;48.808;9.182;2023-02-21T16:45:29;6.17;;;2.00;;
146;SDS011;45999;48.808;9.182;2023-02-21T16:47:58;3.97;;;2.00;;
146;SDS011;45999;48.808;9.182;2023-02-21T16:52:51;5.50;;;2.00;;
146;SDS011;45999;48.808;9.182;2023-02-21T16:55:18;4.13;;;1.97;;
146;SDS011;45999;48.808;9.182;2023-02-21T16:57:51;3.03;;;2.13;;
146;SDS011;45999;48.808;9.182;2023-02-21T17:00:19;3.20;;;2.00;;
146;SDS011;45999;48.808;9.182;2023-02-21T17:02:49;2.63;;;1.67;;
146;SDS011;45999;48.808;9.182;2023-02-21T17:05:15;5.57;;;2.30;;
146;SDS011;45999;48.808;9.182;2023-02-21T17:07:42;3.57;;;2.10;;
146;SDS011;45999;48.808;9.182;2023-02-21T17:10:09;4.40;;;2.33;;
146;SDS011;45999;48.808;9.182;2023-02-21T17:12:35;5.20;;;2.30;;
146;SDS011;45999;48.808;9.182;2023-02-21T17:15:02;8.30;;;2.30;;
146;SDS011;45999;48.808;9.182;2023-02-21T17:17:28;4.47;;;2.30;;
146;SDS011;45999;48.808;9.182;2023-02-21T17:19:55;5.67;;;2.73;;
146;SDS011;45999;48.808;9.182;2023-02-21T17:22:21;4.77;;;2.27;;
146;SDS011;45999;48.808;9.182;2023-02-21T17:24:47;6.33;;;2.57;;
146;SDS011;45999;48.808;9.182;2023-02-21T17:27:14;5.87;;;2.73;;
146;SDS011;45999;48.808;9.182;2023-02-21T17:29:40;4.33;;;2.80;;
146;SDS011;45999;48.808;9.182;2023-02-21T17:32:06;4.53;;;2.50;;
146;SDS011;45999;48.808;9.182;2023-02-21T17:34:33;6.10;;;2.70;;
146;SDS011;45999;48.808;9.182;2023-02-21T17:36:59;7.17;;;3.00;;
146;SDS011;45999;48.808;9.182;2023-02-21T17:39:25;6.60;;;3.33;;
146;SDS011;45999;48.808;9.182;2023-02-21T17:41:52;4.90;;;3.67;;
146;SDS011;45999;48.808;9.182;2023-02-21T17:44:18;10.20;;;4.17;;
146;SDS011;45999;48.808;9.182;2023-02-21T17:46:52;6.73;;;3.57;;
146;SDS011;45999;48.808;9.182;2023-02-21T17:49:20;9.30;;;4.07;;
146;SDS011;45999;48.808;9.182;2023-02-21T17:51:46;7.90;;;4.03;;
146;SDS011;45999;48.808;9.182;2023-02-21T17:54:13;7.90;;;4.00;;
146;SDS011;45999;48.808;9.182;2023-02-21T17:56:40;6.27;;;3.37;;
146;SDS011;45999;48.808;9.182;2023-02-21T17:59:06;9.60;;;4.87;;
146;SDS011;45999;48.808;9.182;2023-02-21T18:01:32;9.77;;;4.80;;
146;SDS011;45999;48.808;9.182;2023-02-21T18:03:59;12.60;;;4.60;;